X  Fechar Metar - Info de Aeroporto     LBPD Plovdiv International Airport
Temperatura
17°C Temperatura
8°C Ptº Orvalho
56% Humidade



Vento
3 KM/H
2 MPH
1 M/S
2 NÓS



Calmaria
N
Condições Atuais

Pouco Nublado Pouco Nublado
Pressão 1013.88 (hPa) - 29.94 (inHg)
Visibilidade 6 (milha) - 9.7 (km)
Aeroporto
Código-Aeropoto LBPD

Localização: Plovdiv International Airport
Distância: 14 (km)

Metar:
LBPD 251330Z AUTO VRB02KT 9999 FEW010/// BKN082/// 17/08 Q1014 NOSIG

Hora: 25-02-2024 15:30 EET